sensor_id;sensor_type;location;lat;lon;timestamp;P1;durP1;ratioP1;P2;durP2;ratioP2
11711;SDS011;5912;51.034;6.984;2022-08-18T00:01:40;11.60;;;10.40;;
11711;SDS011;5912;51.034;6.984;2022-08-18T00:04:08;11.30;;;10.20;;
11711;SDS011;5912;51.034;6.984;2022-08-18T00:06:34;12.52;;;11.23;;
11711;SDS011;5912;51.034;6.984;2022-08-18T00:09:01;12.90;;;11.52;;
11711;SDS011;5912;51.034;6.984;2022-08-18T00:11:31;13.27;;;11.18;;
11711;SDS011;5912;51.034;6.984;2022-08-18T00:13:58;12.15;;;10.85;;
11711;SDS011;5912;51.034;6.984;2022-08-18T00:16:24;13.40;;;12.05;;
11711;SDS011;5912;51.034;6.984;2022-08-18T00:18:49;13.63;;;11.85;;
11711;SDS011;5912;51.034;6.984;2022-08-18T00:21:15;14.20;;;12.73;;
11711;SDS011;5912;51.034;6.984;2022-08-18T00:23:40;15.73;;;14.02;;
11711;SDS011;5912;51.034;6.984;2022-08-18T00:26:06;15.05;;;13.48;;
11711;SDS011;5912;51.034;6.984;2022-08-18T00:28:31;15.15;;;12.75;;
11711;SDS011;5912;51.034;6.984;2022-08-18T00:30:56;14.75;;;13.25;;
11711;SDS011;5912;51.034;6.984;2022-08-18T00:33:22;14.35;;;12.93;;
11711;SDS011;5912;51.034;6.984;2022-08-18T00:35:47;14.95;;;13.40;;
11711;SDS011;5912;51.034;6.984;2022-08-18T00:38:13;15.35;;;13.65;;
11711;SDS011;5912;51.034;6.984;2022-08-18T00:40:42;16.15;;;13.90;;
11711;SDS011;5912;51.034;6.984;2022-08-18T00:43:17;16.73;;;14.43;;
11711;SDS011;5912;51.034;6.984;2022-08-18T00:45:46;18.35;;;15.68;;
11711;SDS011;5912;51.034;6.984;2022-08-18T00:48:11;18.67;;;16.67;;
11711;SDS011;5912;51.034;6.984;2022-08-18T00:50:39;17.77;;;15.60;;
11711;SDS011;5912;51.034;6.984;2022-08-18T00:53:26;20.30;;;17.15;;
11711;SDS011;5912;51.034;6.984;2022-08-18T00:56:02;22.27;;;19.27;;
11711;SDS011;5912;51.034;6.984;2022-08-18T00:58:45;22.45;;;18.42;;
11711;SDS011;5912;51.034;6.984;2022-08-18T01:01:16;26.30;;;20.23;;
11711;SDS011;5912;51.034;6.984;2022-08-18T01:03:45;24.02;;;19.48;;
11711;SDS011;5912;51.034;6.984;2022-08-18T01:06:20;25.52;;;20.65;;
11711;SDS011;5912;51.034;6.984;2022-08-18T01:08:52;23.83;;;20.45;;
11711;SDS011;5912;51.034;6.984;2022-08-18T01:11:18;26.02;;;20.55;;
11711;SDS011;5912;51.034;6.984;2022-08-18T01:13:43;28.48;;;21.80;;
11711;SDS011;5912;51.034;6.984;2022-08-18T01:16:09;27.05;;;21.55;;
11711;SDS011;5912;51.034;6.984;2022-08-18T01:19:06;26.65;;;21.90;;
11711;SDS011;5912;51.034;6.984;2022-08-18T01:21:51;26.02;;;20.65;;
11711;SDS011;5912;51.034;6.984;2022-08-18T01:24:30;24.45;;;20.73;;
11711;SDS011;5912;51.034;6.984;2022-08-18T01:27:17;28.85;;;22.95;;
11711;SDS011;5912;51.034;6.984;2022-08-18T01:29:46;25.70;;;20.77;;
11711;SDS011;5912;51.034;6.984;2022-08-18T01:32:14;27.65;;;21.98;;
11711;SDS011;5912;51.034;6.984;2022-08-18T01:34:44;25.33;;;20.63;;
11711;SDS011;5912;51.034;6.984;2022-08-18T01:37:12;27.50;;;21.17;;
11711;SDS011;5912;51.034;6.984;2022-08-18T01:39:45;27.40;;;23.05;;
11711;SDS011;5912;51.034;6.984;2022-08-18T01:42:11;28.05;;;23.77;;
11711;SDS011;5912;51.034;6.984;2022-08-18T01:44:38;27.67;;;22.27;;
11711;SDS011;5912;51.034;6.984;2022-08-18T01:47:05;29.38;;;23.58;;
11711;SDS011;5912;51.034;6.984;2022-08-18T01:49:32;29.30;;;22.25;;
11711;SDS011;5912;51.034;6.984;2022-08-18T01:51:57;28.02;;;22.50;;
11711;SDS011;5912;51.034;6.984;2022-08-18T01:54:22;30.73;;;23.63;;
11711;SDS011;5912;51.034;6.984;2022-08-18T01:56:48;30.35;;;24.48;;
11711;SDS011;5912;51.034;6.984;2022-08-18T01:59:13;31.80;;;24.08;;
11711;SDS011;5912;51.034;6.984;2022-08-18T02:01:41;28.30;;;22.40;;
11711;SDS011;5912;51.034;6.984;2022-08-18T02:04:08;28.13;;;21.08;;
11711;SDS011;5912;51.034;6.984;2022-08-18T02:06:36;28.70;;;23.02;;
11711;SDS011;5912;51.034;6.984;2022-08-18T02:09:02;26.30;;;21.67;;
11711;SDS011;5912;51.034;6.984;2022-08-18T02:11:28;30.75;;;23.80;;
11711;SDS011;5912;51.034;6.984;2022-08-18T02:13:53;27.83;;;22.63;;
11711;SDS011;5912;51.034;6.984;2022-08-18T02:16:19;26.88;;;21.67;;
11711;SDS011;5912;51.034;6.984;2022-08-18T02:18:44;26.30;;;20.92;;
11711;SDS011;5912;51.034;6.984;2022-08-18T02:21:10;25.83;;;21.63;;
11711;SDS011;5912;51.034;6.984;2022-08-18T02:23:38;28.48;;;22.23;;
11711;SDS011;5912;51.034;6.984;2022-08-18T02:26:06;26.98;;;20.58;;
11711;SDS011;5912;51.034;6.984;2022-08-18T02:28:33;32.78;;;24.60;;
11711;SDS011;5912;51.034;6.984;2022-08-18T02:31:05;35.30;;;26.27;;
11711;SDS011;5912;51.034;6.984;2022-08-18T02:33:33;31.27;;;24.23;;
11711;SDS011;5912;51.034;6.984;2022-08-18T02:35:59;32.00;;;24.13;;
11711;SDS011;5912;51.034;6.984;2022-08-18T02:38:25;32.65;;;25.27;;
11711;SDS011;5912;51.034;6.984;2022-08-18T02:40:57;35.63;;;25.67;;
11711;SDS011;5912;51.034;6.984;2022-08-18T02:43:24;32.63;;;26.23;;
11711;SDS011;5912;51.034;6.984;2022-08-18T02:45:50;30.92;;;24.80;;
11711;SDS011;5912;51.034;6.984;2022-08-18T02:48:16;30.95;;;22.65;;
11711;SDS011;5912;51.034;6.984;2022-08-18T02:50:46;28.27;;;22.08;;
11711;SDS011;5912;51.034;6.984;2022-08-18T02:53:11;26.27;;;21.27;;
11711;SDS011;5912;51.034;6.984;2022-08-18T02:55:47;27.60;;;20.65;;
11711;SDS011;5912;51.034;6.984;2022-08-18T02:58:13;26.77;;;21.80;;
11711;SDS011;5912;51.034;6.984;2022-08-18T03:00:38;30.27;;;22.65;;
11711;SDS011;5912;51.034;6.984;2022-08-18T03:03:04;31.58;;;23.48;;
11711;SDS011;5912;51.034;6.984;2022-08-18T03:05:29;32.35;;;23.98;;
11711;SDS011;5912;51.034;6.984;2022-08-18T03:07:55;28.00;;;22.65;;
11711;SDS011;5912;51.034;6.984;2022-08-18T03:10:20;26.77;;;21.23;;
11711;SDS011;5912;51.034;6.984;2022-08-18T03:12:45;25.02;;;20.52;;
11711;SDS011;5912;51.034;6.984;2022-08-18T03:15:11;25.20;;;21.08;;
11711;SDS011;5912;51.034;6.984;2022-08-18T03:17:36;30.63;;;21.52;;
11711;SDS011;5912;51.034;6.984;2022-08-18T03:20:03;28.77;;;22.17;;
11711;SDS011;5912;51.034;6.984;2022-08-18T03:22:29;36.53;;;27.95;;
11711;SDS011;5912;51.034;6.984;2022-08-18T03:24:56;39.22;;;28.05;;
11711;SDS011;5912;51.034;6.984;2022-08-18T03:27:21;38.67;;;28.20;;
11711;SDS011;5912;51.034;6.984;2022-08-18T03:29:47;38.70;;;27.27;;
11711;SDS011;5912;51.034;6.984;2022-08-18T03:32:14;42.60;;;29.92;;
11711;SDS011;5912;51.034;6.984;2022-08-18T03:34:39;41.97;;;28.70;;
11711;SDS011;5912;51.034;6.984;2022-08-18T03:37:06;44.95;;;29.23;;
11711;SDS011;5912;51.034;6.984;2022-08-18T03:39:32;44.55;;;29.48;;
11711;SDS011;5912;51.034;6.984;2022-08-18T03:41:57;47.47;;;29.08;;
11711;SDS011;5912;51.034;6.984;2022-08-18T03:44:23;50.10;;;34.30;;
11711;SDS011;5912;51.034;6.984;2022-08-18T03:46:49;45.53;;;31.48;;
11711;SDS011;5912;51.034;6.984;2022-08-18T03:49:15;43.28;;;29.35;;
11711;SDS011;5912;51.034;6.984;2022-08-18T03:51:42;43.20;;;28.58;;
11711;SDS011;5912;51.034;6.984;2022-08-18T03:54:11;46.50;;;29.95;;
11711;SDS011;5912;51.034;6.984;2022-08-18T03:56:38;41.83;;;29.88;;
11711;SDS011;5912;51.034;6.984;2022-08-18T03:59:06;44.45;;;30.08;;
11711;SDS011;5912;51.034;6.984;2022-08-18T04:01:37;40.95;;;28.02;;
11711;SDS011;5912;51.034;6.984;2022-08-18T04:04:07;48.70;;;31.50;;
11711;SDS011;5912;51.034;6.984;2022-08-18T04:06:41;46.10;;;29.48;;
11711;SDS011;5912;51.034;6.984;2022-08-18T04:09:11;45.88;;;30.40;;
11711;SDS011;5912;51.034;6.984;2022-08-18T04:11:38;57.60;;;34.58;;
11711;SDS011;5912;51.034;6.984;2022-08-18T04:14:07;54.75;;;31.95;;
11711;SDS011;5912;51.034;6.984;2022-08-18T04:16:33;45.40;;;27.85;;
11711;SDS011;5912;51.034;6.984;2022-08-18T04:19:02;49.30;;;31.17;;
11711;SDS011;5912;51.034;6.984;2022-08-18T04:21:29;54.05;;;31.63;;
11711;SDS011;5912;51.034;6.984;2022-08-18T04:23:55;44.40;;;30.50;;
11711;SDS011;5912;51.034;6.984;2022-08-18T04:26:29;40.83;;;27.60;;
11711;SDS011;5912;51.034;6.984;2022-08-18T04:28:56;41.33;;;27.20;;
11711;SDS011;5912;51.034;6.984;2022-08-18T04:31:23;40.00;;;25.65;;
11711;SDS011;5912;51.034;6.984;2022-08-18T04:33:50;43.85;;;27.33;;
11711;SDS011;5912;51.034;6.984;2022-08-18T04:36:16;44.08;;;28.92;;
11711;SDS011;5912;51.034;6.984;2022-08-18T04:38:41;35.25;;;25.42;;
11711;SDS011;5912;51.034;6.984;2022-08-18T04:41:08;42.47;;;27.13;;
11711;SDS011;5912;51.034;6.984;2022-08-18T04:43:35;41.85;;;26.15;;
11711;SDS011;5912;51.034;6.984;2022-08-18T04:46:00;38.75;;;25.52;;
11711;SDS011;5912;51.034;6.984;2022-08-18T04:48:29;33.80;;;23.48;;
11711;SDS011;5912;51.034;6.984;2022-08-18T04:51:06;40.40;;;26.25;;
11711;SDS011;5912;51.034;6.984;2022-08-18T04:53:34;40.15;;;25.85;;
11711;SDS011;5912;51.034;6.984;2022-08-18T04:59:09;47.40;;;29.95;;
11711;SDS011;5912;51.034;6.984;2022-08-18T05:01:40;40.83;;;26.45;;
11711;SDS011;5912;51.034;6.984;2022-08-18T05:04:09;50.17;;;29.40;;
11711;SDS011;5912;51.034;6.984;2022-08-18T05:06:37;45.78;;;29.08;;
11711;SDS011;5912;51.034;6.984;2022-08-18T05:09:05;47.08;;;28.70;;
11711;SDS011;5912;51.034;6.984;2022-08-18T05:11:33;52.15;;;30.63;;
11711;SDS011;5912;51.034;6.984;2022-08-18T05:14:00;47.35;;;29.73;;
11711;SDS011;5912;51.034;6.984;2022-08-18T05:16:28;50.42;;;28.77;;
11711;SDS011;5912;51.034;6.984;2022-08-18T05:18:55;46.42;;;28.85;;
11711;SDS011;5912;51.034;6.984;2022-08-18T05:21:21;43.60;;;26.08;;
11711;SDS011;5912;51.034;6.984;2022-08-18T05:23:47;50.28;;;29.98;;
11711;SDS011;5912;51.034;6.984;2022-08-18T05:26:14;47.97;;;29.05;;
11711;SDS011;5912;51.034;6.984;2022-08-18T05:28:41;54.63;;;30.70;;
11711;SDS011;5912;51.034;6.984;2022-08-18T05:31:08;50.58;;;31.67;;
11711;SDS011;5912;51.034;6.984;2022-08-18T05:33:37;53.05;;;31.63;;
11711;SDS011;5912;51.034;6.984;2022-08-18T05:36:26;53.63;;;29.88;;
11711;SDS011;5912;51.034;6.984;2022-08-18T05:44:33;45.20;;;27.80;;
11711;SDS011;5912;51.034;6.984;2022-08-18T05:47:16;49.50;;;27.23;;
11711;SDS011;5912;51.034;6.984;2022-08-18T05:49:47;42.00;;;26.90;;
11711;SDS011;5912;51.034;6.984;2022-08-18T05:55:04;45.08;;;28.00;;
11711;SDS011;5912;51.034;6.984;2022-08-18T05:57:54;39.95;;;24.50;;
11711;SDS011;5912;51.034;6.984;2022-08-18T06:00:23;37.53;;;23.02;;
11711;SDS011;5912;51.034;6.984;2022-08-18T06:02:54;37.03;;;23.55;;
11711;SDS011;5912;51.034;6.984;2022-08-18T06:08:01;36.83;;;22.58;;
11711;SDS011;5912;51.034;6.984;2022-08-18T06:10:32;31.75;;;21.30;;
11711;SDS011;5912;51.034;6.984;2022-08-18T06:13:00;28.70;;;20.35;;
11711;SDS011;5912;51.034;6.984;2022-08-18T06:18:29;26.55;;;18.45;;
11711;SDS011;5912;51.034;6.984;2022-08-18T06:29:12;28.83;;;20.25;;
11711;SDS011;5912;51.034;6.984;2022-08-18T06:31:44;26.77;;;18.88;;
11711;SDS011;5912;51.034;6.984;2022-08-18T06:34:39;30.05;;;20.98;;
11711;SDS011;5912;51.034;6.984;2022-08-18T06:37:35;29.85;;;19.88;;
11711;SDS011;5912;51.034;6.984;2022-08-18T06:43:52;41.75;;;26.15;;
11711;SDS011;5912;51.034;6.984;2022-08-18T06:46:25;39.50;;;24.15;;
11711;SDS011;5912;51.034;6.984;2022-08-18T06:48:58;32.30;;;22.67;;
11711;SDS011;5912;51.034;6.984;2022-08-18T06:51:28;30.25;;;20.00;;
11711;SDS011;5912;51.034;6.984;2022-08-18T06:53:55;27.23;;;18.88;;
11711;SDS011;5912;51.034;6.984;2022-08-18T06:56:34;27.08;;;20.23;;
11711;SDS011;5912;51.034;6.984;2022-08-18T06:59:15;31.83;;;22.20;;
11711;SDS011;5912;51.034;6.984;2022-08-18T07:01:51;30.10;;;20.67;;
11711;SDS011;5912;51.034;6.984;2022-08-18T07:04:40;28.70;;;20.45;;
11711;SDS011;5912;51.034;6.984;2022-08-18T07:07:15;28.73;;;18.73;;
11711;SDS011;5912;51.034;6.984;2022-08-18T07:09:54;26.40;;;19.50;;
11711;SDS011;5912;51.034;6.984;2022-08-18T07:12:20;32.65;;;23.05;;
11711;SDS011;5912;51.034;6.984;2022-08-18T07:14:52;34.92;;;23.00;;
11711;SDS011;5912;51.034;6.984;2022-08-18T07:17:28;43.53;;;27.75;;
11711;SDS011;5912;51.034;6.984;2022-08-18T07:20:07;38.58;;;25.55;;
11711;SDS011;5912;51.034;6.984;2022-08-18T07:23:01;32.10;;;20.98;;
11711;SDS011;5912;51.034;6.984;2022-08-18T07:25:31;42.22;;;26.65;;
11711;SDS011;5912;51.034;6.984;2022-08-18T07:28:02;40.95;;;26.30;;
11711;SDS011;5912;51.034;6.984;2022-08-18T07:30:29;39.03;;;24.35;;
11711;SDS011;5912;51.034;6.984;2022-08-18T07:33:04;38.58;;;25.23;;
11711;SDS011;5912;51.034;6.984;2022-08-18T07:38:30;30.45;;;19.85;;
11711;SDS011;5912;51.034;6.984;2022-08-18T07:41:17;33.25;;;21.48;;
11711;SDS011;5912;51.034;6.984;2022-08-18T07:46:19;27.33;;;19.35;;
11711;SDS011;5912;51.034;6.984;2022-08-18T07:48:48;26.85;;;19.80;;
11711;SDS011;5912;51.034;6.984;2022-08-18T07:54:02;24.55;;;16.98;;
11711;SDS011;5912;51.034;6.984;2022-08-18T08:07:29;23.02;;;16.92;;
11711;SDS011;5912;51.034;6.984;2022-08-18T08:13:01;23.40;;;16.83;;
11711;SDS011;5912;51.034;6.984;2022-08-18T08:18:42;22.05;;;17.30;;
11711;SDS011;5912;51.034;6.984;2022-08-18T08:20:54;25.30;;;19.00;;
11711;SDS011;5912;51.034;6.984;2022-08-18T08:23:39;28.20;;;18.67;;
11711;SDS011;5912;51.034;6.984;2022-08-18T08:26:23;21.45;;;16.35;;
11711;SDS011;5912;51.034;6.984;2022-08-18T08:31:48;21.20;;;16.05;;
11711;SDS011;5912;51.034;6.984;2022-08-18T08:36:40;22.55;;;16.52;;
11711;SDS011;5912;51.034;6.984;2022-08-18T08:39:16;19.65;;;14.73;;
11711;SDS011;5912;51.034;6.984;2022-08-18T08:44:33;23.70;;;16.90;;
11711;SDS011;5912;51.034;6.984;2022-08-18T08:47:06;21.42;;;17.40;;
11711;SDS011;5912;51.034;6.984;2022-08-18T08:49:41;21.08;;;16.10;;
11711;SDS011;5912;51.034;6.984;2022-08-18T08:52:20;22.05;;;16.27;;
11711;SDS011;5912;51.034;6.984;2022-08-18T08:54:55;22.33;;;16.35;;
11711;SDS011;5912;51.034;6.984;2022-08-18T08:57:29;18.80;;;13.52;;
11711;SDS011;5912;51.034;6.984;2022-08-18T09:00:14;21.58;;;15.52;;
11711;SDS011;5912;51.034;6.984;2022-08-18T09:05:27;19.58;;;14.82;;
11711;SDS011;5912;51.034;6.984;2022-08-18T09:10:54;17.35;;;14.00;;
11711;SDS011;5912;51.034;6.984;2022-08-18T09:24:46;17.50;;;12.80;;
11711;SDS011;5912;51.034;6.984;2022-08-18T09:30:42;15.93;;;13.13;;
11711;SDS011;5912;51.034;6.984;2022-08-18T09:34:04;16.70;;;12.43;;
11711;SDS011;5912;51.034;6.984;2022-08-18T09:45:04;11.75;;;9.70;;
11711;SDS011;5912;51.034;6.984;2022-08-18T09:47:05;15.15;;;12.38;;
11711;SDS011;5912;51.034;6.984;2022-08-18T09:49:51;16.73;;;13.05;;
11711;SDS011;5912;51.034;6.984;2022-08-18T09:54:58;12.57;;;10.65;;
11711;SDS011;5912;51.034;6.984;2022-08-18T09:57:36;13.02;;;9.95;;
11711;SDS011;5912;51.034;6.984;2022-08-18T10:07:48;11.32;;;9.93;;
11711;SDS011;5912;51.034;6.984;2022-08-18T10:18:25;13.18;;;10.38;;
11711;SDS011;5912;51.034;6.984;2022-08-18T10:21:07;13.30;;;10.10;;
11711;SDS011;5912;51.034;6.984;2022-08-18T10:28:55;8.18;;;7.05;;
11711;SDS011;5912;51.034;6.984;2022-08-18T10:31:25;8.85;;;7.82;;
11711;SDS011;5912;51.034;6.984;2022-08-18T10:39:06;11.77;;;9.43;;
11711;SDS011;5912;51.034;6.984;2022-08-18T10:41:36;8.90;;;7.93;;
11711;SDS011;5912;51.034;6.984;2022-08-18T10:44:12;9.07;;;8.18;;
11711;SDS011;5912;51.034;6.984;2022-08-18T10:46:41;8.65;;;6.82;;
11711;SDS011;5912;51.034;6.984;2022-08-18T10:51:52;10.95;;;9.27;;
11711;SDS011;5912;51.034;6.984;2022-08-18T10:54:33;8.98;;;7.68;;
11711;SDS011;5912;51.034;6.984;2022-08-18T10:57:16;9.82;;;8.43;;
11711;SDS011;5912;51.034;6.984;2022-08-18T11:00:03;8.70;;;7.80;;
11711;SDS011;5912;51.034;6.984;2022-08-18T11:02:46;9.02;;;7.85;;
11711;SDS011;5912;51.034;6.984;2022-08-18T11:05:18;9.93;;;8.88;;
11711;SDS011;5912;51.034;6.984;2022-08-18T11:07:48;8.55;;;7.50;;
11711;SDS011;5912;51.034;6.984;2022-08-18T11:10:33;9.15;;;7.03;;
11711;SDS011;5912;51.034;6.984;2022-08-18T11:16:12;14.38;;;11.93;;
11711;SDS011;5912;51.034;6.984;2022-08-18T11:19:05;11.35;;;9.13;;
11711;SDS011;5912;51.034;6.984;2022-08-18T11:26:30;9.45;;;8.40;;
11711;SDS011;5912;51.034;6.984;2022-08-18T11:28:59;9.70;;;8.68;;
11711;SDS011;5912;51.034;6.984;2022-08-18T11:31:45;10.52;;;8.93;;
11711;SDS011;5912;51.034;6.984;2022-08-18T11:34:13;11.20;;;9.57;;
11711;SDS011;5912;51.034;6.984;2022-08-18T11:36:40;7.95;;;7.03;;
11711;SDS011;5912;51.034;6.984;2022-08-18T11:39:09;8.77;;;7.88;;
11711;SDS011;5912;51.034;6.984;2022-08-18T11:41:36;8.40;;;7.70;;
11711;SDS011;5912;51.034;6.984;2022-08-18T11:44:02;9.35;;;8.45;;
11711;SDS011;5912;51.034;6.984;2022-08-18T11:46:30;9.02;;;8.13;;
11711;SDS011;5912;51.034;6.984;2022-08-18T11:49:19;11.10;;;9.93;;
11711;SDS011;5912;51.034;6.984;2022-08-18T11:51:56;10.95;;;9.85;;
11711;SDS011;5912;51.034;6.984;2022-08-18T11:54:43;11.73;;;10.52;;
11711;SDS011;5912;51.034;6.984;2022-08-18T11:57:37;8.60;;;7.72;;
11711;SDS011;5912;51.034;6.984;2022-08-18T12:03:05;8.98;;;8.07;;
11711;SDS011;5912;51.034;6.984;2022-08-18T12:05:55;9.55;;;8.55;;
11711;SDS011;5912;51.034;6.984;2022-08-18T12:08:33;8.43;;;7.53;;
11711;SDS011;5912;51.034;6.984;2022-08-18T12:11:24;8.50;;;7.70;;
11711;SDS011;5912;51.034;6.984;2022-08-18T12:13:56;8.88;;;8.00;;
11711;SDS011;5912;51.034;6.984;2022-08-18T12:16:31;9.65;;;8.65;;
11711;SDS011;5912;51.034;6.984;2022-08-18T12:19:02;7.80;;;6.93;;
11711;SDS011;5912;51.034;6.984;2022-08-18T12:21:28;8.52;;;7.63;;
11711;SDS011;5912;51.034;6.984;2022-08-18T12:23:53;8.60;;;7.80;;
11711;SDS011;5912;51.034;6.984;2022-08-18T12:26:19;8.98;;;7.93;;
11711;SDS011;5912;51.034;6.984;2022-08-18T12:28:44;12.18;;;10.40;;
11711;SDS011;5912;51.034;6.984;2022-08-18T12:31:10;9.40;;;8.48;;
11711;SDS011;5912;51.034;6.984;2022-08-18T12:33:35;12.88;;;11.32;;
11711;SDS011;5912;51.034;6.984;2022-08-18T12:36:01;9.45;;;8.50;;
11711;SDS011;5912;51.034;6.984;2022-08-18T12:38:28;8.13;;;7.32;;
11711;SDS011;5912;51.034;6.984;2022-08-18T12:40:53;10.57;;;7.47;;
11711;SDS011;5912;51.034;6.984;2022-08-18T12:43:19;9.00;;;8.10;;
11711;SDS011;5912;51.034;6.984;2022-08-18T12:45:44;9.88;;;8.88;;
11711;SDS011;5912;51.034;6.984;2022-08-18T12:48:10;10.43;;;9.18;;
11711;SDS011;5912;51.034;6.984;2022-08-18T12:50:36;8.07;;;7.28;;
11711;SDS011;5912;51.034;6.984;2022-08-18T12:53:03;8.45;;;7.65;;
11711;SDS011;5912;51.034;6.984;2022-08-18T12:55:30;9.60;;;8.65;;
11711;SDS011;5912;51.034;6.984;2022-08-18T12:57:59;8.65;;;7.75;;
11711;SDS011;5912;51.034;6.984;2022-08-18T13:00:24;6.82;;;6.13;;
11711;SDS011;5912;51.034;6.984;2022-08-18T13:02:50;6.60;;;5.97;;
11711;SDS011;5912;51.034;6.984;2022-08-18T13:05:16;6.63;;;5.93;;
11711;SDS011;5912;51.034;6.984;2022-08-18T13:07:43;10.30;;;6.65;;
11711;SDS011;5912;51.034;6.984;2022-08-18T13:10:08;8.48;;;7.55;;
11711;SDS011;5912;51.034;6.984;2022-08-18T13:12:34;6.88;;;6.18;;
11711;SDS011;5912;51.034;6.984;2022-08-18T13:14:59;5.88;;;5.28;;
11711;SDS011;5912;51.034;6.984;2022-08-18T13:17:24;6.45;;;5.55;;
11711;SDS011;5912;51.034;6.984;2022-08-18T13:19:50;6.00;;;5.43;;
11711;SDS011;5912;51.034;6.984;2022-08-18T13:22:15;6.97;;;5.28;;
11711;SDS011;5912;51.034;6.984;2022-08-18T13:24:41;7.00;;;6.13;;
11711;SDS011;5912;51.034;6.984;2022-08-18T13:27:06;6.80;;;5.65;;
11711;SDS011;5912;51.034;6.984;2022-08-18T13:29:32;5.20;;;4.75;;
11711;SDS011;5912;51.034;6.984;2022-08-18T13:31:58;7.13;;;4.95;;
11711;SDS011;5912;51.034;6.984;2022-08-18T13:34:26;6.15;;;4.90;;
11711;SDS011;5912;51.034;6.984;2022-08-18T13:36:52;6.53;;;5.43;;
11711;SDS011;5912;51.034;6.984;2022-08-18T13:39:19;6.22;;;5.30;;
11711;SDS011;5912;51.034;6.984;2022-08-18T13:41:47;7.35;;;5.28;;
11711;SDS011;5912;51.034;6.984;2022-08-18T13:44:15;4.78;;;4.25;;
11711;SDS011;5912;51.034;6.984;2022-08-18T13:46:43;5.93;;;5.32;;
11711;SDS011;5912;51.034;6.984;2022-08-18T13:49:12;6.15;;;5.25;;
11711;SDS011;5912;51.034;6.984;2022-08-18T13:51:39;5.30;;;4.80;;
11711;SDS011;5912;51.034;6.984;2022-08-18T13:54:06;6.30;;;5.40;;
11711;SDS011;5912;51.034;6.984;2022-08-18T13:56:32;5.90;;;5.22;;
11711;SDS011;5912;51.034;6.984;2022-08-18T13:58:57;7.18;;;4.72;;
11711;SDS011;5912;51.034;6.984;2022-08-18T14:01:23;5.53;;;4.63;;
11711;SDS011;5912;51.034;6.984;2022-08-18T14:03:48;5.53;;;4.90;;
11711;SDS011;5912;51.034;6.984;2022-08-18T14:06:13;6.20;;;5.18;;
11711;SDS011;5912;51.034;6.984;2022-08-18T14:08:39;4.43;;;4.03;;
11711;SDS011;5912;51.034;6.984;2022-08-18T14:11:05;4.85;;;4.35;;
11711;SDS011;5912;51.034;6.984;2022-08-18T14:13:30;6.40;;;4.70;;
11711;SDS011;5912;51.034;6.984;2022-08-18T14:15:56;5.97;;;5.28;;
11711;SDS011;5912;51.034;6.984;2022-08-18T14:18:22;5.40;;;4.90;;
11711;SDS011;5912;51.034;6.984;2022-08-18T14:20:48;5.75;;;5.25;;
11711;SDS011;5912;51.034;6.984;2022-08-18T14:23:33;7.25;;;5.45;;
11711;SDS011;5912;51.034;6.984;2022-08-18T14:26:10;6.35;;;5.72;;
11711;SDS011;5912;51.034;6.984;2022-08-18T14:28:54;5.90;;;5.40;;
11711;SDS011;5912;51.034;6.984;2022-08-18T14:31:20;5.78;;;5.18;;
11711;SDS011;5912;51.034;6.984;2022-08-18T14:33:46;7.07;;;5.35;;
11711;SDS011;5912;51.034;6.984;2022-08-18T14:36:12;6.63;;;6.03;;
11711;SDS011;5912;51.034;6.984;2022-08-18T14:38:39;7.72;;;6.22;;
11711;SDS011;5912;51.034;6.984;2022-08-18T14:41:07;5.72;;;5.22;;
11711;SDS011;5912;51.034;6.984;2022-08-18T14:43:36;6.63;;;5.93;;
11711;SDS011;5912;51.034;6.984;2022-08-18T14:46:02;7.55;;;6.80;;
11711;SDS011;5912;51.034;6.984;2022-08-18T14:48:29;6.97;;;6.38;;
11711;SDS011;5912;51.034;6.984;2022-08-18T14:50:56;7.32;;;6.40;;
11711;SDS011;5912;51.034;6.984;2022-08-18T14:53:26;6.50;;;5.90;;
11711;SDS011;5912;51.034;6.984;2022-08-18T14:55:53;8.88;;;6.18;;
11711;SDS011;5912;51.034;6.984;2022-08-18T14:58:26;7.22;;;6.55;;
11711;SDS011;5912;51.034;6.984;2022-08-18T15:01:11;7.20;;;6.43;;
11711;SDS011;5912;51.034;6.984;2022-08-18T15:03:37;8.35;;;7.65;;
11711;SDS011;5912;51.034;6.984;2022-08-18T15:06:04;8.13;;;7.32;;
11711;SDS011;5912;51.034;6.984;2022-08-18T15:08:30;8.27;;;7.13;;
11711;SDS011;5912;51.034;6.984;2022-08-18T15:10:58;7.47;;;6.78;;
11711;SDS011;5912;51.034;6.984;2022-08-18T15:13:24;6.75;;;6.07;;
11711;SDS011;5912;51.034;6.984;2022-08-18T15:15:50;7.35;;;6.65;;
11711;SDS011;5912;51.034;6.984;2022-08-18T15:18:15;7.72;;;6.70;;
11711;SDS011;5912;51.034;6.984;2022-08-18T15:20:43;7.50;;;6.80;;
11711;SDS011;5912;51.034;6.984;2022-08-18T15:23:27;7.25;;;6.60;;
11711;SDS011;5912;51.034;6.984;2022-08-18T15:26:11;6.55;;;6.05;;
11711;SDS011;5912;51.034;6.984;2022-08-18T15:28:37;7.20;;;6.28;;
11711;SDS011;5912;51.034;6.984;2022-08-18T15:31:03;7.05;;;6.45;;
11711;SDS011;5912;51.034;6.984;2022-08-18T15:33:29;7.50;;;6.80;;
11711;SDS011;5912;51.034;6.984;2022-08-18T15:35:54;11.15;;;9.90;;
11711;SDS011;5912;51.034;6.984;2022-08-18T15:38:20;7.00;;;6.40;;
11711;SDS011;5912;51.034;6.984;2022-08-18T15:40:48;7.18;;;6.55;;
11711;SDS011;5912;51.034;6.984;2022-08-18T15:43:22;7.25;;;6.55;;
11711;SDS011;5912;51.034;6.984;2022-08-18T15:45:49;7.18;;;6.47;;
11711;SDS011;5912;51.034;6.984;2022-08-18T15:48:15;9.82;;;7.93;;
11711;SDS011;5912;51.034;6.984;2022-08-18T15:50:42;7.35;;;6.75;;
11711;SDS011;5912;51.034;6.984;2022-08-18T15:53:12;9.60;;;8.70;;
11711;SDS011;5912;51.034;6.984;2022-08-18T15:55:43;8.35;;;7.55;;
11711;SDS011;5912;51.034;6.984;2022-08-18T15:58:09;9.23;;;8.27;;
11711;SDS011;5912;51.034;6.984;2022-08-18T16:00:35;8.57;;;7.78;;
11711;SDS011;5912;51.034;6.984;2022-08-18T16:03:03;8.70;;;7.53;;
11711;SDS011;5912;51.034;6.984;2022-08-18T16:05:31;8.32;;;7.53;;
11711;SDS011;5912;51.034;6.984;2022-08-18T16:08:02;8.85;;;7.85;;
11711;SDS011;5912;51.034;6.984;2022-08-18T16:10:29;8.05;;;7.25;;
11711;SDS011;5912;51.034;6.984;2022-08-18T16:12:56;8.98;;;8.05;;
11711;SDS011;5912;51.034;6.984;2022-08-18T16:15:23;7.88;;;7.18;;
11711;SDS011;5912;51.034;6.984;2022-08-18T16:17:50;7.88;;;7.03;;
11711;SDS011;5912;51.034;6.984;2022-08-18T16:20:18;8.48;;;6.85;;
11711;SDS011;5912;51.034;6.984;2022-08-18T16:22:46;10.30;;;8.45;;
11711;SDS011;5912;51.034;6.984;2022-08-18T16:25:11;8.15;;;7.05;;
11711;SDS011;5912;51.034;6.984;2022-08-18T16:27:37;7.97;;;7.20;;
11711;SDS011;5912;51.034;6.984;2022-08-18T16:30:09;10.35;;;7.93;;
11711;SDS011;5912;51.034;6.984;2022-08-18T16:32:36;8.95;;;8.05;;
11711;SDS011;5912;51.034;6.984;2022-08-18T16:35:02;8.00;;;7.20;;
11711;SDS011;5912;51.034;6.984;2022-08-18T16:37:28;8.48;;;7.50;;
11711;SDS011;5912;51.034;6.984;2022-08-18T16:39:53;7.63;;;6.93;;
11711;SDS011;5912;51.034;6.984;2022-08-18T16:42:19;8.32;;;7.53;;
11711;SDS011;5912;51.034;6.984;2022-08-18T16:44:45;7.70;;;7.00;;
11711;SDS011;5912;51.034;6.984;2022-08-18T16:47:10;8.18;;;7.35;;
11711;SDS011;5912;51.034;6.984;2022-08-18T16:49:45;8.00;;;7.15;;
11711;SDS011;5912;51.034;6.984;2022-08-18T16:52:12;8.70;;;7.80;;
11711;SDS011;5912;51.034;6.984;2022-08-18T16:54:39;7.72;;;7.03;;
11711;SDS011;5912;51.034;6.984;2022-08-18T16:57:05;7.35;;;6.65;;
11711;SDS011;5912;51.034;6.984;2022-08-18T16:59:31;7.43;;;6.70;;
11711;SDS011;5912;51.034;6.984;2022-08-18T17:02:15;7.32;;;6.72;;
11711;SDS011;5912;51.034;6.984;2022-08-18T17:05:00;7.78;;;6.35;;
11711;SDS011;5912;51.034;6.984;2022-08-18T17:07:31;7.93;;;7.22;;
11711;SDS011;5912;51.034;6.984;2022-08-18T17:09:58;7.38;;;6.72;;
11711;SDS011;5912;51.034;6.984;2022-08-18T17:12:24;7.15;;;6.38;;
11711;SDS011;5912;51.034;6.984;2022-08-18T17:14:51;6.97;;;6.28;;
11711;SDS011;5912;51.034;6.984;2022-08-18T17:17:18;6.97;;;6.38;;